sensor_id;sensor_type;location;lat;lon;timestamp;pressure;altitude;pressure_sealevel;temperature;humidity
68871;BME280;55906;52.278;6.808;2022-12-18T00:02:04;102881.69;;;-4.07;81.50
68871;BME280;55906;52.278;6.808;2022-12-18T00:04:30;102877.28;;;-4.08;81.86
68871;BME280;55906;52.278;6.808;2022-12-18T00:06:57;102871.03;;;-4.10;81.18
68871;BME280;55906;52.278;6.808;2022-12-18T00:09:24;102862.25;;;-4.12;81.31
68871;BME280;55906;52.278;6.808;2022-12-18T00:11:50;102863.53;;;-4.15;81.02
68871;BME280;55906;52.278;6.808;2022-12-18T00:14:17;102865.56;;;-4.20;81.12
68871;BME280;55906;52.278;6.808;2022-12-18T00:16:45;102868.88;;;-4.21;81.00
68871;BME280;55906;52.278;6.808;2022-12-18T00:19:12;102869.63;;;-4.29;80.83
68871;BME280;55906;52.278;6.808;2022-12-18T00:21:40;102876.44;;;-4.30;81.06
68871;BME280;55906;52.278;6.808;2022-12-18T00:24:08;102879.75;;;-4.31;81.10
68871;BME280;55906;52.278;6.808;2022-12-18T00:26:36;102884.69;;;-4.32;81.14
68871;BME280;55906;52.278;6.808;2022-12-18T00:29:04;102874.44;;;-4.39;80.59
68871;BME280;55906;52.278;6.808;2022-12-18T00:31:31;102868.22;;;-4.41;80.86
68871;BME280;55906;52.278;6.808;2022-12-18T00:34:00;102864.53;;;-4.43;80.66
68871;BME280;55906;52.278;6.808;2022-12-18T00:36:28;102864.53;;;-4.43;80.91
68871;BME280;55906;52.278;6.808;2022-12-18T00:38:57;102864.91;;;-4.47;80.99
68871;BME280;55906;52.278;6.808;2022-12-18T00:41:24;102868.78;;;-4.51;80.82
68871;BME280;55906;52.278;6.808;2022-12-18T00:44:10;102865.13;;;-4.53;80.56
68871;BME280;55906;52.278;6.808;2022-12-18T00:46:37;102873.00;;;-4.52;80.98
68871;BME280;55906;52.278;6.808;2022-12-18T00:49:05;102866.22;;;-4.51;80.98
68871;BME280;55906;52.278;6.808;2022-12-18T00:51:32;102872.81;;;-4.53;80.68
68871;BME280;55906;52.278;6.808;2022-12-18T00:53:59;102869.34;;;-4.54;80.92
68871;BME280;55906;52.278;6.808;2022-12-18T00:56:26;102862.00;;;-4.58;80.59
68871;BME280;55906;52.278;6.808;2022-12-18T00:58:53;102871.53;;;-4.57;80.73
68871;BME280;55906;52.278;6.808;2022-12-18T01:01:19;102858.53;;;-4.58;80.68
68871;BME280;55906;52.278;6.808;2022-12-18T01:03:46;102860.34;;;-4.57;80.39
68871;BME280;55906;52.278;6.808;2022-12-18T01:06:15;102858.53;;;-4.58;79.86
68871;BME280;55906;52.278;6.808;2022-12-18T01:08:42;102862.56;;;-4.60;80.16
68871;BME280;55906;52.278;6.808;2022-12-18T01:11:10;102861.28;;;-4.64;79.99
68871;BME280;55906;52.278;6.808;2022-12-18T01:13:37;102859.09;;;-4.68;80.56
68871;BME280;55906;52.278;6.808;2022-12-18T01:16:05;102847.72;;;-4.70;79.85
68871;BME280;55906;52.278;6.808;2022-12-18T01:18:32;102838.56;;;-4.75;79.92
68871;BME280;55906;52.278;6.808;2022-12-18T01:20:58;102840.03;;;-4.77;80.00
68871;BME280;55906;52.278;6.808;2022-12-18T01:23:26;102846.66;;;-4.79;80.08
68871;BME280;55906;52.278;6.808;2022-12-18T01:25:53;102843.72;;;-4.82;80.43
68871;BME280;55906;52.278;6.808;2022-12-18T01:28:20;102847.94;;;-4.82;80.40
68871;BME280;55906;52.278;6.808;2022-12-18T01:30:46;102843.72;;;-4.82;80.60
68871;BME280;55906;52.278;6.808;2022-12-18T01:33:13;102855.09;;;-4.80;80.31
68871;BME280;55906;52.278;6.808;2022-12-18T01:35:40;102862.97;;;-4.78;80.47
68871;BME280;55906;52.278;6.808;2022-12-18T01:38:08;102857.28;;;-4.76;80.44
68871;BME280;55906;52.278;6.808;2022-12-18T01:40:36;102866.81;;;-4.75;80.23
68871;BME280;55906;52.278;6.808;2022-12-18T01:43:03;102864.25;;;-4.75;80.15
68871;BME280;55906;52.278;6.808;2022-12-18T01:45:31;102854.72;;;-4.76;79.87
68871;BME280;55906;52.278;6.808;2022-12-18T01:47:59;102862.41;;;-4.76;79.94
68871;BME280;55906;52.278;6.808;2022-12-18T01:50:30;102860.94;;;-4.74;80.16
68871;BME280;55906;52.278;6.808;2022-12-18T01:53:03;102855.06;;;-4.73;80.07
68871;BME280;55906;52.278;6.808;2022-12-18T01:55:36;102857.63;;;-4.73;79.99
68871;BME280;55906;52.278;6.808;2022-12-18T01:58:05;102863.69;;;-4.72;80.06
68871;BME280;55906;52.278;6.808;2022-12-18T02:00:32;102863.88;;;-4.71;80.34
68871;BME280;55906;52.278;6.808;2022-12-18T02:02:58;102869.38;;;-4.68;79.96
68871;BME280;55906;52.278;6.808;2022-12-18T02:05:33;102878.91;;;-4.67;79.96
68871;BME280;55906;52.278;6.808;2022-12-18T02:08:08;102871.38;;;-4.65;79.68
68871;BME280;55906;52.278;6.808;2022-12-18T02:10:45;102868.63;;;-4.67;79.72
68871;BME280;55906;52.278;6.808;2022-12-18T02:13:20;102868.63;;;-4.67;79.57
68871;BME280;55906;52.278;6.808;2022-12-18T02:15:55;102865.50;;;-4.64;79.78
68871;BME280;55906;52.278;6.808;2022-12-18T02:18:30;102868.63;;;-4.67;79.44
68871;BME280;55906;52.278;6.808;2022-12-18T02:21:04;102875.22;;;-4.62;79.81
68871;BME280;55906;52.278;6.808;2022-12-18T02:23:45;102865.13;;;-4.60;79.53
68871;BME280;55906;52.278;6.808;2022-12-18T02:26:19;102855.41;;;-4.63;79.38
68871;BME280;55906;52.278;6.808;2022-12-18T02:28:50;102866.41;;;-4.64;79.08
68871;BME280;55906;52.278;6.808;2022-12-18T02:31:21;102859.28;;;-4.66;78.96
68871;BME280;55906;52.278;6.808;2022-12-18T02:33:51;102861.66;;;-4.68;79.01
68871;BME280;55906;52.278;6.808;2022-12-18T02:36:20;102856.16;;;-4.71;78.99
68871;BME280;55906;52.278;6.808;2022-12-18T02:38:48;102856.91;;;-4.72;78.87
68871;BME280;55906;52.278;6.808;2022-12-18T02:41:18;102848.09;;;-4.74;79.36
68871;BME280;55906;52.278;6.808;2022-12-18T02:43:48;102856.91;;;-4.72;79.17
68871;BME280;55906;52.278;6.808;2022-12-18T02:46:26;102854.34;;;-4.72;79.40
68871;BME280;55906;52.278;6.808;2022-12-18T02:48:57;102854.34;;;-4.72;79.26
68871;BME280;55906;52.278;6.808;2022-12-18T02:51:32;102851.78;;;-4.72;79.26
68871;BME280;55906;52.278;6.808;2022-12-18T02:54:06;102855.81;;;-4.74;79.00
68871;BME280;55906;52.278;6.808;2022-12-18T02:56:41;102853.78;;;-4.76;79.21
68871;BME280;55906;52.278;6.808;2022-12-18T02:59:13;102861.66;;;-4.75;79.17
68871;BME280;55906;52.278;6.808;2022-12-18T03:01:49;102861.84;;;-4.73;79.11
68871;BME280;55906;52.278;6.808;2022-12-18T03:04:22;102865.53;;;-4.71;79.12
68871;BME280;55906;52.278;6.808;2022-12-18T03:06:54;102870.47;;;-4.73;79.63
68871;BME280;55906;52.278;6.808;2022-12-18T03:09:27;102862.41;;;-4.69;79.19
68871;BME280;55906;52.278;6.808;2022-12-18T03:12:02;102861.84;;;-4.66;79.26
68871;BME280;55906;52.278;6.808;2022-12-18T03:14:52;102859.47;;;-4.65;79.75
68871;BME280;55906;52.278;6.808;2022-12-18T03:17:22;102859.63;;;-4.63;79.38
68871;BME280;55906;52.278;6.808;2022-12-18T03:19:52;102860.38;;;-4.64;79.37
68871;BME280;55906;52.278;6.808;2022-12-18T03:22:20;102854.13;;;-4.66;78.88
68871;BME280;55906;52.278;6.808;2022-12-18T03:24:48;102859.81;;;-4.69;79.04
68871;BME280;55906;52.278;6.808;2022-12-18T03:27:20;102843.50;;;-4.69;78.23
68871;BME280;55906;52.278;6.808;2022-12-18T03:29:50;102852.69;;;-4.71;78.54
68871;BME280;55906;52.278;6.808;2022-12-18T03:32:23;102850.66;;;-4.74;78.66
68871;BME280;55906;52.278;6.808;2022-12-18T03:34:53;102846.09;;;-4.76;78.84
68871;BME280;55906;52.278;6.808;2022-12-18T03:37:21;102846.47;;;-4.80;78.82
68871;BME280;55906;52.278;6.808;2022-12-18T03:39:48;102843.34;;;-4.85;78.63
68871;BME280;55906;52.278;6.808;2022-12-18T03:42:23;102834.91;;;-4.84;78.61
68871;BME280;55906;52.278;6.808;2022-12-18T03:44:57;102830.34;;;-4.87;78.73
68871;BME280;55906;52.278;6.808;2022-12-18T03:47:27;102835.28;;;-4.88;78.70
68871;BME280;55906;52.278;6.808;2022-12-18T03:49:58;102825.03;;;-4.88;78.93
68871;BME280;55906;52.278;6.808;2022-12-18T03:52:29;102830.91;;;-4.89;78.89
68871;BME280;55906;52.278;6.808;2022-12-18T03:54:59;102823.75;;;-4.92;78.77
68871;BME280;55906;52.278;6.808;2022-12-18T03:57:29;102822.47;;;-4.88;78.94
68871;BME280;55906;52.278;6.808;2022-12-18T04:00:03;102820.81;;;-4.88;78.85
68871;BME280;55906;52.278;6.808;2022-12-18T04:02:31;102826.69;;;-4.89;78.95
68871;BME280;55906;52.278;6.808;2022-12-18T04:05:02;102823.19;;;-4.89;79.35
68871;BME280;55906;52.278;6.808;2022-12-18T04:07:31;102812.38;;;-4.87;78.88
68871;BME280;55906;52.278;6.808;2022-12-18T04:09:59;102810.91;;;-4.85;79.03
68871;BME280;55906;52.278;6.808;2022-12-18T04:12:29;102824.28;;;-4.80;79.18
68871;BME280;55906;52.278;6.808;2022-12-18T04:14:56;102823.19;;;-4.82;78.73
68871;BME280;55906;52.278;6.808;2022-12-18T04:17:22;102822.09;;;-4.84;78.61
68871;BME280;55906;52.278;6.808;2022-12-18T04:19:49;102817.13;;;-4.82;78.66
68871;BME280;55906;52.278;6.808;2022-12-18T04:22:16;102808.16;;;-4.86;78.46
68871;BME280;55906;52.278;6.808;2022-12-18T04:24:43;102808.16;;;-4.86;78.57
68871;BME280;55906;52.278;6.808;2022-12-18T04:27:09;102810.00;;;-4.85;78.65
68871;BME280;55906;52.278;6.808;2022-12-18T04:29:37;102817.31;;;-4.81;78.77
68871;BME280;55906;52.278;6.808;2022-12-18T04:32:04;102814.38;;;-4.84;78.82
68871;BME280;55906;52.278;6.808;2022-12-18T04:34:31;102816.03;;;-4.77;78.70
68871;BME280;55906;52.278;6.808;2022-12-18T04:36:57;102821.34;;;-4.76;78.61
68871;BME280;55906;52.278;6.808;2022-12-18T04:39:24;102816.22;;;-4.76;78.69
68871;BME280;55906;52.278;6.808;2022-12-18T04:41:51;102815.47;;;-4.75;78.74
68871;BME280;55906;52.278;6.808;2022-12-18T04:44:17;102816.38;;;-4.74;78.28
68871;BME280;55906;52.278;6.808;2022-12-18T04:46:45;102814.75;;;-4.74;78.09
68871;BME280;55906;52.278;6.808;2022-12-18T04:49:12;102816.22;;;-4.76;78.09
68871;BME280;55906;52.278;6.808;2022-12-18T04:51:38;102812.38;;;-4.79;78.17
68871;BME280;55906;52.278;6.808;2022-12-18T04:54:05;102805.22;;;-4.82;78.14
68871;BME280;55906;52.278;6.808;2022-12-18T04:56:32;102806.13;;;-4.81;77.98
68871;BME280;55906;52.278;6.808;2022-12-18T04:58:58;102800.09;;;-4.82;77.95
68871;BME280;55906;52.278;6.808;2022-12-18T05:01:25;102791.28;;;-4.84;77.85
68871;BME280;55906;52.278;6.808;2022-12-18T05:03:53;102781.41;;;-4.88;77.70
68871;BME280;55906;52.278;6.808;2022-12-18T05:06:20;102783.78;;;-4.90;77.79
68871;BME280;55906;52.278;6.808;2022-12-18T05:08:46;102790.41;;;-4.92;77.57
68871;BME280;55906;52.278;6.808;2022-12-18T05:11:14;102794.63;;;-4.92;77.62
68871;BME280;55906;52.278;6.808;2022-12-18T05:13:41;102792.03;;;-4.92;77.73
68871;BME280;55906;52.278;6.808;2022-12-18T05:16:08;102802.69;;;-4.96;77.87
68871;BME280;55906;52.278;6.808;2022-12-18T05:18:35;102801.75;;;-4.97;77.91
68871;BME280;55906;52.278;6.808;2022-12-18T05:21:03;102804.50;;;-4.95;78.14
68871;BME280;55906;52.278;6.808;2022-12-18T05:23:30;102805.25;;;-4.96;78.11
68871;BME280;55906;52.278;6.808;2022-12-18T05:25:58;102817.34;;;-4.95;78.15
68871;BME280;55906;52.278;6.808;2022-12-18T05:28:28;102810.75;;;-4.93;78.26
68871;BME280;55906;52.278;6.808;2022-12-18T05:30:56;102810.00;;;-4.92;78.17
68871;BME280;55906;52.278;6.808;2022-12-18T05:33:25;102810.19;;;-4.91;78.16
68871;BME280;55906;52.278;6.808;2022-12-18T05:35:52;102816.22;;;-4.90;78.08
68871;BME280;55906;52.278;6.808;2022-12-18T05:38:22;102821.00;;;-4.93;78.07
68871;BME280;55906;52.278;6.808;2022-12-18T05:40:49;102824.31;;;-4.94;78.34
68871;BME280;55906;52.278;6.808;2022-12-18T05:43:17;102819.16;;;-4.94;77.90
68871;BME280;55906;52.278;6.808;2022-12-18T05:45:44;102813.69;;;-4.97;78.10
68871;BME280;55906;52.278;6.808;2022-12-18T05:48:11;102818.81;;;-4.97;78.35
68871;BME280;55906;52.278;6.808;2022-12-18T05:50:39;102826.13;;;-4.93;78.11
68871;BME280;55906;52.278;6.808;2022-12-18T05:53:06;102821.00;;;-4.93;78.12
68871;BME280;55906;52.278;6.808;2022-12-18T05:55:35;102823.56;;;-4.93;78.44
68871;BME280;55906;52.278;6.808;2022-12-18T05:58:02;102833.09;;;-4.92;78.48
68871;BME280;55906;52.278;6.808;2022-12-18T06:00:29;102837.50;;;-4.91;78.42
68871;BME280;55906;52.278;6.808;2022-12-18T06:02:55;102836.75;;;-4.90;78.41
68871;BME280;55906;52.278;6.808;2022-12-18T06:05:22;102844.28;;;-4.92;78.42
68871;BME280;55906;52.278;6.808;2022-12-18T06:07:49;102835.31;;;-4.95;78.40
68871;BME280;55906;52.278;6.808;2022-12-18T06:10:15;102842.44;;;-4.93;78.35
68871;BME280;55906;52.278;6.808;2022-12-18T06:12:44;102844.09;;;-4.93;78.25
68871;BME280;55906;52.278;6.808;2022-12-18T06:15:11;102847.03;;;-4.90;78.57
68871;BME280;55906;52.278;6.808;2022-12-18T06:17:37;102857.84;;;-4.93;78.08
68871;BME280;55906;52.278;6.808;2022-12-18T06:20:05;102862.25;;;-4.92;78.21
68871;BME280;55906;52.278;6.808;2022-12-18T06:22:32;102862.25;;;-4.92;78.06
68871;BME280;55906;52.278;6.808;2022-12-18T06:24:58;102860.59;;;-4.91;77.91
68871;BME280;55906;52.278;6.808;2022-12-18T06:27:25;102857.66;;;-4.94;77.67
68871;BME280;55906;52.278;6.808;2022-12-18T06:29:53;102853.44;;;-4.94;77.76
68871;BME280;55906;52.278;6.808;2022-12-18T06:32:20;102858.22;;;-4.97;77.39
68871;BME280;55906;52.278;6.808;2022-12-18T06:34:46;102862.06;;;-5.00;77.15
68871;BME280;55906;52.278;6.808;2022-12-18T06:37:13;102867.19;;;-5.00;77.05
68871;BME280;55906;52.278;6.808;2022-12-18T06:39:39;102855.84;;;-5.02;77.39
68871;BME280;55906;52.278;6.808;2022-12-18T06:42:06;102856.56;;;-5.03;77.41
68871;BME280;55906;52.278;6.808;2022-12-18T06:44:33;102846.13;;;-5.05;77.56
68871;BME280;55906;52.278;6.808;2022-12-18T06:47:01;102849.41;;;-5.06;77.08
68871;BME280;55906;52.278;6.808;2022-12-18T06:49:27;102840.63;;;-5.08;77.43
68871;BME280;55906;52.278;6.808;2022-12-18T06:51:54;102836.97;;;-5.10;77.63
68871;BME280;55906;52.278;6.808;2022-12-18T06:54:20;102834.56;;;-5.08;77.60
68871;BME280;55906;52.278;6.808;2022-12-18T06:56:47;102828.34;;;-5.10;77.62
68871;BME280;55906;52.278;6.808;2022-12-18T06:59:14;102823.41;;;-5.09;77.75
68871;BME280;55906;52.278;6.808;2022-12-18T07:01:40;102814.97;;;-5.08;77.74
68871;BME280;55906;52.278;6.808;2022-12-18T07:04:08;102814.25;;;-5.07;77.66
68871;BME280;55906;52.278;6.808;2022-12-18T07:06:35;102812.22;;;-5.09;78.00
68871;BME280;55906;52.278;6.808;2022-12-18T07:09:01;102808.19;;;-5.07;78.07
68871;BME280;55906;52.278;6.808;2022-12-18T07:11:28;102801.97;;;-5.09;77.93
68871;BME280;55906;52.278;6.808;2022-12-18T07:13:55;102798.66;;;-5.08;77.93
68871;BME280;55906;52.278;6.808;2022-12-18T07:16:21;102799.56;;;-5.08;78.16
68871;BME280;55906;52.278;6.808;2022-12-18T07:18:48;102795.38;;;-5.07;78.28
68871;BME280;55906;52.278;6.808;2022-12-18T07:21:17;102799.03;;;-5.05;77.48
68871;BME280;55906;52.278;6.808;2022-12-18T07:23:44;102790.22;;;-5.07;77.91
68871;BME280;55906;52.278;6.808;2022-12-18T07:26:14;102800.84;;;-5.04;77.94
68871;BME280;55906;52.278;6.808;2022-12-18T07:28:41;102794.09;;;-5.04;77.91
68871;BME280;55906;52.278;6.808;2022-12-18T07:31:10;102788.41;;;-5.01;77.75
68871;BME280;55906;52.278;6.808;2022-12-18T07:33:37;102786.94;;;-4.99;77.74
68871;BME280;55906;52.278;6.808;2022-12-18T07:36:06;102792.25;;;-4.98;77.44
68871;BME280;55906;52.278;6.808;2022-12-18T07:38:34;102812.94;;;-4.96;77.43
68871;BME280;55906;52.278;6.808;2022-12-18T07:41:02;102800.84;;;-4.97;77.40
68871;BME280;55906;52.278;6.808;2022-12-18T07:43:29;102794.06;;;-4.97;77.08
68871;BME280;55906;52.278;6.808;2022-12-18T07:45:56;102799.19;;;-4.97;77.38
68871;BME280;55906;52.278;6.808;2022-12-18T07:48:22;102801.41;;;-4.93;77.63
68871;BME280;55906;52.278;6.808;2022-12-18T07:50:49;102800.84;;;-4.90;77.65
68871;BME280;55906;52.278;6.808;2022-12-18T07:53:16;102805.59;;;-4.86;77.67
68871;BME280;55906;52.278;6.808;2022-12-18T07:55:44;102810.53;;;-4.80;77.50
68871;BME280;55906;52.278;6.808;2022-12-18T07:58:10;102806.50;;;-4.78;77.62
68871;BME280;55906;52.278;6.808;2022-12-18T08:00:38;102803.72;;;-4.73;77.60
68871;BME280;55906;52.278;6.808;2022-12-18T08:03:04;102805.38;;;-4.66;77.47
68871;BME280;55906;52.278;6.808;2022-12-18T08:05:31;102799.31;;;-4.60;77.34
68871;BME280;55906;52.278;6.808;2022-12-18T08:07:58;102797.25;;;-4.48;77.77
68871;BME280;55906;52.278;6.808;2022-12-18T08:10:24;102800.25;;;-4.22;77.23
68871;BME280;55906;52.278;6.808;2022-12-18T08:12:52;102798.28;;;-3.95;76.50
68871;BME280;55906;52.278;6.808;2022-12-18T08:15:19;102789.00;;;-3.71;75.24
68871;BME280;55906;52.278;6.808;2022-12-18T08:17:46;102780.09;;;-3.59;75.06
68871;BME280;55906;52.278;6.808;2022-12-18T08:20:13;102778.56;;;-3.50;75.49
68871;BME280;55906;52.278;6.808;2022-12-18T08:22:40;102779.06;;;-3.45;75.45
68871;BME280;55906;52.278;6.808;2022-12-18T08:25:10;102784.34;;;-3.37;74.73
68871;BME280;55906;52.278;6.808;2022-12-18T08:27:37;102782.63;;;-3.29;75.30
68871;BME280;55906;52.278;6.808;2022-12-18T08:30:06;102780.91;;;-3.22;75.39
68871;BME280;55906;52.278;6.808;2022-12-18T08:32:33;102771.44;;;-3.14;75.59
68871;BME280;55906;52.278;6.808;2022-12-18T08:35:00;102766.22;;;-3.07;75.81
68871;BME280;55906;52.278;6.808;2022-12-18T08:37:27;102760.59;;;-2.96;75.37
68871;BME280;55906;52.278;6.808;2022-12-18T08:39:53;102763.44;;;-2.85;74.75
68871;BME280;55906;52.278;6.808;2022-12-18T08:42:20;102761.69;;;-2.78;74.96
68871;BME280;55906;52.278;6.808;2022-12-18T08:45:07;102759.06;;;-2.71;75.79
68871;BME280;55906;52.278;6.808;2022-12-18T08:47:33;102759.72;;;-2.65;75.47
68871;BME280;55906;52.278;6.808;2022-12-18T08:50:00;102756.00;;;-2.60;74.49
68871;BME280;55906;52.278;6.808;2022-12-18T08:52:27;102756.25;;;-2.49;74.62
68871;BME280;55906;52.278;6.808;2022-12-18T08:54:54;102738.78;;;-2.36;74.90
68871;BME280;55906;52.278;6.808;2022-12-18T08:57:21;102738.25;;;-2.09;74.49
68871;BME280;55906;52.278;6.808;2022-12-18T08:59:47;102742.59;;;-1.68;74.37
68871;BME280;55906;52.278;6.808;2022-12-18T09:02:15;102741.00;;;-1.26;73.27
68871;BME280;55906;52.278;6.808;2022-12-18T09:04:42;102741.41;;;-0.88;73.08
68871;BME280;55906;52.278;6.808;2022-12-18T09:07:09;102745.59;;;-0.47;72.35
68871;BME280;55906;52.278;6.808;2022-12-18T09:09:35;102736.91;;;-0.05;72.51
68871;BME280;55906;52.278;6.808;2022-12-18T09:12:02;102729.41;;;0.33;71.46
68871;BME280;55906;52.278;6.808;2022-12-18T09:14:29;102736.28;;;0.69;71.17
68871;BME280;55906;52.278;6.808;2022-12-18T09:16:56;102740.03;;;0.81;67.78
68871;BME280;55906;52.278;6.808;2022-12-18T09:19:24;102734.53;;;0.86;69.44
68871;BME280;55906;52.278;6.808;2022-12-18T09:21:50;102735.38;;;0.95;68.86
68871;BME280;55906;52.278;6.808;2022-12-18T09:24:17;102736.34;;;1.15;67.73
68871;BME280;55906;52.278;6.808;2022-12-18T09:26:43;102733.13;;;1.45;68.27
68871;BME280;55906;52.278;6.808;2022-12-18T09:29:10;102744.69;;;1.86;67.38
68871;BME280;55906;52.278;6.808;2022-12-18T09:31:37;102739.75;;;2.37;65.96
68871;BME280;55906;52.278;6.808;2022-12-18T09:34:04;102742.41;;;2.96;65.72
68871;BME280;55906;52.278;6.808;2022-12-18T09:36:32;102738.38;;;3.61;65.06
68871;BME280;55906;52.278;6.808;2022-12-18T09:38:59;102729.09;;;3.84;63.83
68871;BME280;55906;52.278;6.808;2022-12-18T09:41:36;102716.84;;;4.04;60.83
68871;BME280;55906;52.278;6.808;2022-12-18T09:44:14;102710.81;;;4.47;61.25
68871;BME280;55906;52.278;6.808;2022-12-18T09:46:45;102696.56;;;4.54;59.49
68871;BME280;55906;52.278;6.808;2022-12-18T09:49:16;102698.31;;;4.65;59.86
68871;BME280;55906;52.278;6.808;2022-12-18T09:51:49;102694.16;;;4.67;57.03
68871;BME280;55906;52.278;6.808;2022-12-18T09:54:21;102698.03;;;4.50;54.35
68871;BME280;55906;52.278;6.808;2022-12-18T09:56:49;102696.44;;;4.30;54.16
68871;BME280;55906;52.278;6.808;2022-12-18T09:59:21;102695.94;;;4.24;56.79
68871;BME280;55906;52.278;6.808;2022-12-18T10:01:50;102709.41;;;4.08;56.17
68871;BME280;55906;52.278;6.808;2022-12-18T10:04:16;102705.81;;;3.86;56.93
68871;BME280;55906;52.278;6.808;2022-12-18T10:06:49;102707.41;;;3.74;56.16
68871;BME280;55906;52.278;6.808;2022-12-18T10:09:25;102709.91;;;3.52;54.18
68871;BME280;55906;52.278;6.808;2022-12-18T10:12:00;102702.13;;;3.42;56.23
68871;BME280;55906;52.278;6.808;2022-12-18T10:14:35;102703.44;;;3.27;55.93
68871;BME280;55906;52.278;6.808;2022-12-18T10:17:17;102711.09;;;3.05;56.55
68871;BME280;55906;52.278;6.808;2022-12-18T10:19:52;102687.97;;;2.98;56.40
68871;BME280;55906;52.278;6.808;2022-12-18T10:22:26;102678.97;;;2.84;56.11
68871;BME280;55906;52.278;6.808;2022-12-18T10:25:02;102659.22;;;2.76;55.86
68871;BME280;55906;52.278;6.808;2022-12-18T10:27:31;102656.34;;;2.63;57.07
68871;BME280;55906;52.278;6.808;2022-12-18T10:29:57;102642.03;;;2.57;56.29
68871;BME280;55906;52.278;6.808;2022-12-18T10:32:26;102639.84;;;2.62;56.75
68871;BME280;55906;52.278;6.808;2022-12-18T10:34:55;102639.44;;;2.57;56.88
68871;BME280;55906;52.278;6.808;2022-12-18T10:37:25;102634.09;;;2.46;56.11
68871;BME280;55906;52.278;6.808;2022-12-18T10:40:12;102624.47;;;2.45;56.44
68871;BME280;55906;52.278;6.808;2022-12-18T10:42:39;102617.59;;;2.55;56.85
68871;BME280;55906;52.278;6.808;2022-12-18T10:45:10;102609.53;;;2.52;56.85
68871;BME280;55906;52.278;6.808;2022-12-18T10:47:42;102601.50;;;2.60;56.29
68871;BME280;55906;52.278;6.808;2022-12-18T10:50:19;102597.91;;;2.68;56.86
68871;BME280;55906;52.278;6.808;2022-12-18T10:52:54;102609.94;;;2.57;56.31
68871;BME280;55906;52.278;6.808;2022-12-18T10:55:21;102615.28;;;2.58;57.22
68871;BME280;55906;52.278;6.808;2022-12-18T10:57:48;102615.69;;;2.63;56.53
68871;BME280;55906;52.278;6.808;2022-12-18T11:00:24;102611.53;;;2.65;56.10
68871;BME280;55906;52.278;6.808;2022-12-18T11:02:51;102604.88;;;2.48;55.98
68871;BME280;55906;52.278;6.808;2022-12-18T11:05:27;102593.44;;;2.46;56.18
68871;BME280;55906;52.278;6.808;2022-12-18T11:07:56;102593.69;;;2.39;56.22
68871;BME280;55906;52.278;6.808;2022-12-18T11:10:28;102593.44;;;2.36;56.02
68871;BME280;55906;52.278;6.808;2022-12-18T11:12:55;102586.53;;;2.27;56.71
68871;BME280;55906;52.278;6.808;2022-12-18T11:15:26;102587.94;;;2.23;56.15
68871;BME280;55906;52.278;6.808;2022-12-18T11:17:54;102597.56;;;2.24;56.33
68871;BME280;55906;52.278;6.808;2022-12-18T11:20:28;102589.25;;;2.18;55.89
68871;BME280;55906;52.278;6.808;2022-12-18T11:22:59;102591.94;;;2.09;56.51
68871;BME280;55906;52.278;6.808;2022-12-18T11:25:27;102597.38;;;2.02;56.28
68871;BME280;55906;52.278;6.808;2022-12-18T11:27:56;102588.44;;;2.09;56.63
68871;BME280;55906;52.278;6.808;2022-12-18T11:30:24;102581.94;;;2.04;56.75
68871;BME280;55906;52.278;6.808;2022-12-18T11:32:55;102575.19;;;2.06;56.23
68871;BME280;55906;52.278;6.808;2022-12-18T11:35:38;102571.28;;;2.01;56.70
68871;BME280;55906;52.278;6.808;2022-12-18T11:38:15;102569.97;;;1.96;56.15
68871;BME280;55906;52.278;6.808;2022-12-18T11:40:47;102556.22;;;1.97;57.41
68871;BME280;55906;52.278;6.808;2022-12-18T11:43:19;102553.25;;;2.02;56.75
68871;BME280;55906;52.278;6.808;2022-12-18T11:45:52;102557.28;;;1.99;58.08
68871;BME280;55906;52.278;6.808;2022-12-18T11:48:22;102555.22;;;2.05;57.88
68871;BME280;55906;52.278;6.808;2022-12-18T11:50:52;102556.91;;;2.04;57.56
68871;BME280;55906;52.278;6.808;2022-12-18T11:53:21;102551.06;;;2.07;57.91
68871;BME280;55906;52.278;6.808;2022-12-18T11:58:46;102552.50;;;2.13;58.14
68871;BME280;55906;52.278;6.808;2022-12-18T12:01:22;102552.50;;;2.13;58.02
68871;BME280;55906;52.278;6.808;2022-12-18T12:04:08;102537.56;;;2.11;56.92
68871;BME280;55906;52.278;6.808;2022-12-18T12:06:46;102532.66;;;2.14;57.41
68871;BME280;55906;52.278;6.808;2022-12-18T12:09:21;102532.50;;;2.12;57.84
68871;BME280;55906;52.278;6.808;2022-12-18T12:11:57;102525.63;;;2.13;57.00
68871;BME280;55906;52.278;6.808;2022-12-18T12:14:39;102530.44;;;2.18;57.99
68871;BME280;55906;52.278;6.808;2022-12-18T12:17:14;102535.50;;;2.17;57.76
68871;BME280;55906;52.278;6.808;2022-12-18T12:19:48;102538.63;;;2.13;57.39
68871;BME280;55906;52.278;6.808;2022-12-18T12:22:24;102522.13;;;2.12;57.43
68871;BME280;55906;52.278;6.808;2022-12-18T12:25:05;102511.34;;;2.08;57.06
68871;BME280;55906;52.278;6.808;2022-12-18T12:27:43;102488.25;;;2.11;58.39
68871;BME280;55906;52.278;6.808;2022-12-18T12:30:19;102484.38;;;2.16;57.21
68871;BME280;55906;52.278;6.808;2022-12-18T12:32:58;102485.00;;;2.13;58.30
68871;BME280;55906;52.278;6.808;2022-12-18T12:35:34;102474.75;;;2.15;57.87
68871;BME280;55906;52.278;6.808;2022-12-18T12:38:09;102473.72;;;2.13;57.61
68871;BME280;55906;52.278;6.808;2022-12-18T12:40:44;102472.16;;;2.15;57.52
68871;BME280;55906;52.278;6.808;2022-12-18T12:43:33;102478.13;;;2.14;57.54
68871;BME280;55906;52.278;6.808;2022-12-18T12:46:03;102474.38;;;2.10;57.81
68871;BME280;55906;52.278;6.808;2022-12-18T12:48:42;102465.41;;;2.07;56.66
68871;BME280;55906;52.278;6.808;2022-12-18T12:51:13;102470.47;;;2.05;57.98
68871;BME280;55906;52.278;6.808;2022-12-18T12:53:42;102460.22;;;2.07;57.72
68871;BME280;55906;52.278;6.808;2022-12-18T12:56:12;102473.72;;;2.13;57.55
68871;BME280;55906;52.278;6.808;2022-12-18T12:58:46;102464.91;;;2.11;58.23
68871;BME280;55906;52.278;6.808;2022-12-18T13:01:23;102461.53;;;2.12;57.33
68871;BME280;55906;52.278;6.808;2022-12-18T13:04:01;102454.91;;;2.15;57.29
68871;BME280;55906;52.278;6.808;2022-12-18T13:06:39;102450.38;;;2.13;58.08
68871;BME280;55906;52.278;6.808;2022-12-18T13:09:08;102450.75;;;2.17;57.95